sensor_id;sensor_type;location;lat;lon;timestamp;pressure;altitude;pressure_sealevel;temperature;humidity
5298;BME280;14738;42.668;23.250;2023-04-15T00:01:23;48402.22;;;-141.90;100.00
5298;BME280;14738;42.668;23.250;2023-04-15T00:03:53;48394.28;;;-141.90;100.00
5298;BME280;14738;42.668;23.250;2023-04-15T00:06:22;48346.63;;;-141.90;100.00
5298;BME280;14738;42.668;23.250;2023-04-15T00:08:48;48390.31;;;-141.90;100.00
5298;BME280;14738;42.668;23.250;2023-04-15T00:11:15;48370.44;;;-141.90;100.00
5298;BME280;14738;42.668;23.250;2023-04-15T00:13:41;48388.31;;;-141.90;100.00
5298;BME280;14738;42.668;23.250;2023-04-15T00:16:07;48356.56;;;-141.90;100.00
5298;BME280;14738;42.668;23.250;2023-04-15T00:18:33;48390.31;;;-141.90;100.00
5298;BME280;14738;42.668;23.250;2023-04-15T00:20:58;48360.53;;;-141.90;100.00
5298;BME280;14738;42.668;23.250;2023-04-15T00:23:24;48364.50;;;-141.90;100.00
5298;BME280;14738;42.668;23.250;2023-04-15T00:25:50;48402.22;;;-141.90;100.00
5298;BME280;14738;42.668;23.250;2023-04-15T00:28:16;48412.13;;;-141.90;100.00
5298;BME280;14738;42.668;23.250;2023-04-15T00:30:42;48386.34;;;-141.90;100.00
5298;BME280;14738;42.668;23.250;2023-04-15T00:33:07;48374.41;;;-141.90;100.00
5298;BME280;14738;42.668;23.250;2023-04-15T00:35:33;48390.31;;;-141.90;100.00
5298;BME280;14738;42.668;23.250;2023-04-15T00:37:58;48378.38;;;-141.90;100.00
5298;BME280;14738;42.668;23.250;2023-04-15T00:40:24;48406.19;;;-141.90;100.00
5298;BME280;14738;42.668;23.250;2023-04-15T00:42:50;48382.34;;;-141.90;100.00
5298;BME280;14738;42.668;23.250;2023-04-15T00:45:16;48388.31;;;-141.90;100.00
5298;BME280;14738;42.668;23.250;2023-04-15T00:47:42;48376.41;;;-141.90;100.00
5298;BME280;14738;42.668;23.250;2023-04-15T00:50:09;48400.22;;;-141.90;100.00
5298;BME280;14738;42.668;23.250;2023-04-15T00:52:34;48388.31;;;-141.90;100.00
5298;BME280;14738;42.668;23.250;2023-04-15T00:55:03;48398.25;;;-141.90;100.00
5298;BME280;14738;42.668;23.250;2023-04-15T00:57:29;48410.16;;;-141.90;100.00
5298;BME280;14738;42.668;23.250;2023-04-15T00:59:55;48378.38;;;-141.90;100.00
5298;BME280;14738;42.668;23.250;2023-04-15T01:02:21;48378.38;;;-141.90;100.00
5298;BME280;14738;42.668;23.250;2023-04-15T01:04:48;48378.38;;;-141.90;100.00
5298;BME280;14738;42.668;23.250;2023-04-15T01:07:13;48394.28;;;-141.90;100.00
5298;BME280;14738;42.668;23.250;2023-04-15T01:09:39;48410.16;;;-141.90;100.00
5298;BME280;14738;42.668;23.250;2023-04-15T01:12:06;48404.19;;;-141.90;100.00
5298;BME280;14738;42.668;23.250;2023-04-15T01:14:32;48402.22;;;-141.90;100.00
5298;BME280;14738;42.668;23.250;2023-04-15T01:16:58;48404.19;;;-141.90;100.00
5298;BME280;14738;42.668;23.250;2023-04-15T01:19:23;48400.22;;;-141.90;100.00
5298;BME280;14738;42.668;23.250;2023-04-15T01:21:49;48348.63;;;-141.90;100.00
5298;BME280;14738;42.668;23.250;2023-04-15T01:24:17;48398.25;;;-141.90;100.00
5298;BME280;14738;42.668;23.250;2023-04-15T01:26:43;48402.22;;;-141.90;100.00
5298;BME280;14738;42.668;23.250;2023-04-15T01:29:09;48374.41;;;-141.90;100.00
5298;BME280;14738;42.668;23.250;2023-04-15T01:31:34;48386.34;;;-141.90;100.00
5298;BME280;14738;42.668;23.250;2023-04-15T01:34:00;48402.22;;;-141.90;100.00
5298;BME280;14738;42.668;23.250;2023-04-15T01:36:26;48410.16;;;-141.90;100.00
5298;BME280;14738;42.668;23.250;2023-04-15T01:38:52;48398.25;;;-141.90;100.00
5298;BME280;14738;42.668;23.250;2023-04-15T01:41:36;48433.97;;;-141.90;100.00
5298;BME280;14738;42.668;23.250;2023-04-15T01:44:01;48408.16;;;-141.90;100.00
5298;BME280;14738;42.668;23.250;2023-04-15T01:46:27;48410.16;;;-141.90;100.00
5298;BME280;14738;42.668;23.250;2023-04-15T01:48:52;48406.19;;;-141.90;100.00
5298;BME280;14738;42.668;23.250;2023-04-15T01:51:17;48406.19;;;-141.90;100.00
5298;BME280;14738;42.668;23.250;2023-04-15T01:53:43;48362.50;;;-141.90;100.00
5298;BME280;14738;42.668;23.250;2023-04-15T01:56:08;48400.22;;;-141.90;100.00
5298;BME280;14738;42.668;23.250;2023-04-15T01:58:34;48412.13;;;-141.90;100.00
5298;BME280;14738;42.668;23.250;2023-04-15T02:00:59;48430.00;;;-141.90;100.00
5298;BME280;14738;42.668;23.250;2023-04-15T02:03:27;48414.13;;;-141.90;100.00
5298;BME280;14738;42.668;23.250;2023-04-15T02:05:53;48416.09;;;-141.90;100.00
5298;BME280;14738;42.668;23.250;2023-04-15T02:08:19;48414.13;;;-141.90;100.00
5298;BME280;14738;42.668;23.250;2023-04-15T02:10:44;48410.16;;;-141.90;100.00
5298;BME280;14738;42.668;23.250;2023-04-15T02:13:10;48410.16;;;-141.90;100.00
5298;BME280;14738;42.668;23.250;2023-04-15T02:15:35;48416.09;;;-141.90;100.00
5298;BME280;14738;42.668;23.250;2023-04-15T02:18:00;48432.00;;;-141.90;100.00
5298;BME280;14738;42.668;23.250;2023-04-15T02:20:26;48418.09;;;-141.90;100.00
5298;BME280;14738;42.668;23.250;2023-04-15T02:22:52;48410.16;;;-141.90;100.00
5298;BME280;14738;42.668;23.250;2023-04-15T02:25:17;48402.22;;;-141.90;100.00
5298;BME280;14738;42.668;23.250;2023-04-15T02:27:44;48422.06;;;-141.90;100.00
5298;BME280;14738;42.668;23.250;2023-04-15T02:30:09;48426.03;;;-141.90;100.00
5298;BME280;14738;42.668;23.250;2023-04-15T02:32:35;48410.16;;;-141.90;100.00
5298;BME280;14738;42.668;23.250;2023-04-15T02:35:06;48428.03;;;-141.90;100.00
5298;BME280;14738;42.668;23.250;2023-04-15T02:37:32;48461.78;;;-141.90;100.00
5298;BME280;14738;42.668;23.250;2023-04-15T02:40:01;48437.94;;;-141.90;100.00
5298;BME280;14738;42.668;23.250;2023-04-15T02:42:26;48445.88;;;-141.90;100.00
5298;BME280;14738;42.668;23.250;2023-04-15T02:44:53;48457.81;;;-141.90;100.00
5298;BME280;14738;42.668;23.250;2023-04-15T02:47:19;48418.09;;;-141.90;100.00
5298;BME280;14738;42.668;23.250;2023-04-15T02:49:44;48433.97;;;-141.90;100.00
5298;BME280;14738;42.668;23.250;2023-04-15T02:52:09;48424.06;;;-141.90;100.00
5298;BME280;14738;42.668;23.250;2023-04-15T02:54:35;48437.94;;;-141.90;100.00
5298;BME280;14738;42.668;23.250;2023-04-15T02:57:01;48443.91;;;-141.90;100.00
5298;BME280;14738;42.668;23.250;2023-04-15T02:59:26;48426.03;;;-141.90;100.00
5298;BME280;14738;42.668;23.250;2023-04-15T03:01:51;48445.88;;;-141.90;100.00
5298;BME280;14738;42.668;23.250;2023-04-15T03:04:17;48445.88;;;-141.90;100.00
5298;BME280;14738;42.668;23.250;2023-04-15T03:06:43;48424.06;;;-141.90;100.00
5298;BME280;14738;42.668;23.250;2023-04-15T03:09:08;48435.97;;;-141.90;100.00
5298;BME280;14738;42.668;23.250;2023-04-15T03:11:33;48416.09;;;-141.90;100.00
5298;BME280;14738;42.668;23.250;2023-04-15T03:14:00;48441.91;;;-141.90;100.00
5298;BME280;14738;42.668;23.250;2023-04-15T03:16:26;48418.09;;;-141.90;100.00
5298;BME280;14738;42.668;23.250;2023-04-15T03:18:51;48453.81;;;-141.90;100.00
5298;BME280;14738;42.668;23.250;2023-04-15T03:21:17;48455.81;;;-141.90;100.00
5298;BME280;14738;42.668;23.250;2023-04-15T03:23:44;48428.03;;;-141.90;100.00
5298;BME280;14738;42.668;23.250;2023-04-15T03:26:09;48441.91;;;-141.90;100.00
5298;BME280;14738;42.668;23.250;2023-04-15T03:28:34;48394.28;;;-141.90;100.00
5298;BME280;14738;42.668;23.250;2023-04-15T03:31:00;48426.03;;;-141.90;100.00
5298;BME280;14738;42.668;23.250;2023-04-15T03:33:25;48426.03;;;-141.90;100.00
5298;BME280;14738;42.668;23.250;2023-04-15T03:35:51;48426.03;;;-141.90;100.00
5298;BME280;14738;42.668;23.250;2023-04-15T03:38:17;48437.94;;;-141.90;100.00
5298;BME280;14738;42.668;23.250;2023-04-15T03:40:43;48457.81;;;-141.90;100.00
5298;BME280;14738;42.668;23.250;2023-04-15T03:43:08;48457.81;;;-141.90;100.00
5298;BME280;14738;42.668;23.250;2023-04-15T03:45:34;48430.00;;;-141.90;100.00
5298;BME280;14738;42.668;23.250;2023-04-15T03:47:59;48437.94;;;-141.90;100.00
5298;BME280;14738;42.668;23.250;2023-04-15T03:50:25;48422.06;;;-141.90;100.00
5298;BME280;14738;42.668;23.250;2023-04-15T03:52:52;48445.88;;;-141.90;100.00
5298;BME280;14738;42.668;23.250;2023-04-15T03:55:17;48430.00;;;-141.90;100.00
5298;BME280;14738;42.668;23.250;2023-04-15T03:57:42;48432.00;;;-141.90;100.00
5298;BME280;14738;42.668;23.250;2023-04-15T04:00:08;48443.91;;;-141.90;100.00
5298;BME280;14738;42.668;23.250;2023-04-15T04:02:37;48439.94;;;-141.90;100.00
5298;BME280;14738;42.668;23.250;2023-04-15T04:05:02;48428.03;;;-141.90;100.00
5298;BME280;14738;42.668;23.250;2023-04-15T04:07:28;48418.09;;;-141.90;100.00
5298;BME280;14738;42.668;23.250;2023-04-15T04:09:56;48404.19;;;-141.90;100.00
5298;BME280;14738;42.668;23.250;2023-04-15T04:12:21;48402.22;;;-141.90;100.00
5298;BME280;14738;42.668;23.250;2023-04-15T04:14:47;48400.22;;;-141.90;100.00
5298;BME280;14738;42.668;23.250;2023-04-15T04:17:12;48388.31;;;-141.90;100.00
5298;BME280;14738;42.668;23.250;2023-04-15T04:19:37;48406.19;;;-141.90;100.00
5298;BME280;14738;42.668;23.250;2023-04-15T04:22:03;48414.13;;;-141.90;100.00
5298;BME280;14738;42.668;23.250;2023-04-15T04:24:28;48406.19;;;-141.90;46.52
5298;BME280;14738;42.668;23.250;2023-04-15T04:26:54;48378.38;;;-141.90;44.79
5298;BME280;14738;42.668;23.250;2023-04-15T04:29:20;48386.34;;;-141.90;43.14
5298;BME280;14738;42.668;23.250;2023-04-15T04:31:46;48410.16;;;-141.90;43.10
5298;BME280;14738;42.668;23.250;2023-04-15T04:34:12;48366.47;;;-141.90;42.13
5298;BME280;14738;42.668;23.250;2023-04-15T04:36:38;48398.25;;;-141.90;40.11
5298;BME280;14738;42.668;23.250;2023-04-15T04:39:03;48422.06;;;-141.90;39.13
5298;BME280;14738;42.668;23.250;2023-04-15T04:41:28;48418.09;;;-141.90;38.18
5298;BME280;14738;42.668;23.250;2023-04-15T04:43:54;48404.19;;;-141.90;37.94
5298;BME280;14738;42.668;23.250;2023-04-15T04:46:20;48402.22;;;-141.90;37.07
5298;BME280;14738;42.668;23.250;2023-04-15T04:48:45;48404.19;;;-141.90;36.57
5298;BME280;14738;42.668;23.250;2023-04-15T04:51:11;48404.19;;;-141.90;35.61
5298;BME280;14738;42.668;23.250;2023-04-15T04:53:36;48432.00;;;-141.90;33.17
5298;BME280;14738;42.668;23.250;2023-04-15T04:56:02;48441.91;;;-141.90;32.50
5298;BME280;14738;42.668;23.250;2023-04-15T04:58:27;48441.91;;;-141.90;30.77
5298;BME280;14738;42.668;23.250;2023-04-15T05:00:53;48461.78;;;-141.90;30.62
5298;BME280;14738;42.668;23.250;2023-04-15T05:03:18;48471.69;;;-141.90;28.66
5298;BME280;14738;42.668;23.250;2023-04-15T05:05:44;48457.81;;;-141.90;29.72
5298;BME280;14738;42.668;23.250;2023-04-15T05:08:10;48449.84;;;-141.90;29.37
5298;BME280;14738;42.668;23.250;2023-04-15T05:10:35;48441.91;;;-141.90;29.70
5298;BME280;14738;42.668;23.250;2023-04-15T05:13:00;48459.78;;;-141.90;28.04
5298;BME280;14738;42.668;23.250;2023-04-15T05:15:26;48453.81;;;-141.90;27.86
5298;BME280;14738;42.668;23.250;2023-04-15T05:17:51;48449.84;;;-141.90;27.85
5298;BME280;14738;42.668;23.250;2023-04-15T05:20:16;48443.91;;;-141.90;29.43
5298;BME280;14738;42.668;23.250;2023-04-15T05:22:42;48402.22;;;-141.90;31.60
5298;BME280;14738;42.668;23.250;2023-04-15T05:25:08;48388.31;;;-141.90;32.70
5298;BME280;14738;42.668;23.250;2023-04-15T05:27:34;48416.09;;;-141.90;32.21
5298;BME280;14738;42.668;23.250;2023-04-15T05:29:59;48410.16;;;-141.90;30.69
5298;BME280;14738;42.668;23.250;2023-04-15T05:32:25;48394.28;;;-141.90;31.41
5298;BME280;14738;42.668;23.250;2023-04-15T05:34:50;48430.00;;;-141.90;30.62
5298;BME280;14738;42.668;23.250;2023-04-15T05:37:16;48426.03;;;-141.90;29.67
5298;BME280;14738;42.668;23.250;2023-04-15T05:39:41;48437.94;;;-141.90;29.91
5298;BME280;14738;42.668;23.250;2023-04-15T05:42:07;48445.88;;;-141.90;29.54
5298;BME280;14738;42.668;23.250;2023-04-15T05:44:32;48441.91;;;-141.90;28.48
5298;BME280;14738;42.668;23.250;2023-04-15T05:46:58;48453.81;;;-141.90;27.80
5298;BME280;14738;42.668;23.250;2023-04-15T05:49:23;48443.91;;;-141.90;28.56
5298;BME280;14738;42.668;23.250;2023-04-15T05:51:49;48432.00;;;-141.90;28.70
5298;BME280;14738;42.668;23.250;2023-04-15T05:54:14;48465.75;;;-141.90;27.71
5298;BME280;14738;42.668;23.250;2023-04-15T05:56:40;48426.03;;;-141.90;28.24
5298;BME280;14738;42.668;23.250;2023-04-15T05:59:05;48430.00;;;-141.90;28.78
5298;BME280;14738;42.668;23.250;2023-04-15T06:01:32;48463.75;;;-141.90;28.78
5298;BME280;14738;42.668;23.250;2023-04-15T06:03:58;48439.94;;;-141.90;28.40
5298;BME280;14738;42.668;23.250;2023-04-15T06:06:23;48441.91;;;-141.90;26.56
5298;BME280;14738;42.668;23.250;2023-04-15T06:08:49;48507.44;;;-141.90;26.88
5298;BME280;14738;42.668;23.250;2023-04-15T06:11:15;48489.56;;;-141.90;26.66
5298;BME280;14738;42.668;23.250;2023-04-15T06:13:40;48461.78;;;-141.90;26.61
5298;BME280;14738;42.668;23.250;2023-04-15T06:16:06;48433.97;;;-141.90;29.38
5298;BME280;14738;42.668;23.250;2023-04-15T06:18:32;48430.00;;;-141.90;29.17
5298;BME280;14738;42.668;23.250;2023-04-15T06:20:57;48437.94;;;-141.90;28.50
5298;BME280;14738;42.668;23.250;2023-04-15T06:23:23;48439.94;;;-141.90;28.31
5298;BME280;14738;42.668;23.250;2023-04-15T06:25:48;48457.81;;;-141.90;27.57
5298;BME280;14738;42.668;23.250;2023-04-15T06:28:13;48443.91;;;-141.90;27.40
5298;BME280;14738;42.668;23.250;2023-04-15T06:30:39;48441.91;;;-141.90;28.93
5298;BME280;14738;42.668;23.250;2023-04-15T06:33:04;48437.94;;;-141.90;28.03
5298;BME280;14738;42.668;23.250;2023-04-15T06:35:30;48457.81;;;-141.90;27.51
5298;BME280;14738;42.668;23.250;2023-04-15T06:37:55;48432.00;;;-141.90;27.23
5298;BME280;14738;42.668;23.250;2023-04-15T06:40:21;48433.97;;;-141.90;28.40
5298;BME280;14738;42.668;23.250;2023-04-15T06:42:46;48402.22;;;-141.90;29.27
5298;BME280;14738;42.668;23.250;2023-04-15T06:45:12;48430.00;;;-141.90;28.24
5298;BME280;14738;42.668;23.250;2023-04-15T06:47:37;48398.25;;;-141.90;31.36
5298;BME280;14738;42.668;23.250;2023-04-15T06:50:03;48366.47;;;-141.90;31.91
5298;BME280;14738;42.668;23.250;2023-04-15T06:52:28;48368.47;;;-141.90;32.27
5298;BME280;14738;42.668;23.250;2023-04-15T06:54:54;48386.34;;;-141.90;33.20
5298;BME280;14738;42.668;23.250;2023-04-15T06:57:19;48378.38;;;-141.90;33.58
5298;BME280;14738;42.668;23.250;2023-04-15T06:59:45;48398.25;;;-141.90;33.37
5298;BME280;14738;42.668;23.250;2023-04-15T07:02:12;48370.44;;;-141.90;33.64
5298;BME280;14738;42.668;23.250;2023-04-15T07:04:38;48378.38;;;-141.90;33.57
5298;BME280;14738;42.668;23.250;2023-04-15T07:07:04;48366.47;;;-141.90;32.07
5298;BME280;14738;42.668;23.250;2023-04-15T07:09:30;48394.28;;;-141.90;33.72
5298;BME280;14738;42.668;23.250;2023-04-15T07:11:56;48392.28;;;-141.90;33.50
5298;BME280;14738;42.668;23.250;2023-04-15T07:14:21;48398.25;;;-141.90;32.28
5298;BME280;14738;42.668;23.250;2023-04-15T07:16:47;48378.38;;;-141.90;31.70
5298;BME280;14738;42.668;23.250;2023-04-15T07:19:12;48394.28;;;-141.90;31.37
5298;BME280;14738;42.668;23.250;2023-04-15T07:21:38;48402.22;;;-141.90;30.96
5298;BME280;14738;42.668;23.250;2023-04-15T07:24:04;48376.41;;;-141.90;31.15
5298;BME280;14738;42.668;23.250;2023-04-15T07:26:29;48368.47;;;-141.90;30.67
5298;BME280;14738;42.668;23.250;2023-04-15T07:28:54;48394.28;;;-141.90;30.72
5298;BME280;14738;42.668;23.250;2023-04-15T07:31:20;48390.31;;;-141.90;30.37
5298;BME280;14738;42.668;23.250;2023-04-15T07:33:46;48398.25;;;-141.90;29.93
5298;BME280;14738;42.668;23.250;2023-04-15T07:36:11;48386.34;;;-141.90;31.32
5298;BME280;14738;42.668;23.250;2023-04-15T07:38:37;48398.25;;;-141.90;31.76
5298;BME280;14738;42.668;23.250;2023-04-15T07:41:03;48376.41;;;-141.90;32.66
5298;BME280;14738;42.668;23.250;2023-04-15T07:43:29;48370.44;;;-141.90;33.99
5298;BME280;14738;42.668;23.250;2023-04-15T07:45:54;48360.53;;;-141.90;32.13
5298;BME280;14738;42.668;23.250;2023-04-15T07:48:19;48374.41;;;-141.90;31.22
5298;BME280;14738;42.668;23.250;2023-04-15T07:50:45;48386.34;;;-141.90;32.60
5298;BME280;14738;42.668;23.250;2023-04-15T07:53:10;48388.31;;;-141.90;31.90
5298;BME280;14738;42.668;23.250;2023-04-15T07:55:36;48372.44;;;-141.90;31.75
5298;BME280;14738;42.668;23.250;2023-04-15T07:58:03;48368.47;;;-141.90;31.43
5298;BME280;14738;42.668;23.250;2023-04-15T08:00:28;48376.41;;;-141.90;31.28
5298;BME280;14738;42.668;23.250;2023-04-15T08:02:55;48366.47;;;-141.90;31.05
5298;BME280;14738;42.668;23.250;2023-04-15T08:05:21;48402.22;;;-141.90;31.64
5298;BME280;14738;42.668;23.250;2023-04-15T08:07:47;48386.34;;;-141.90;27.12
5298;BME280;14738;42.668;23.250;2023-04-15T08:10:13;48396.25;;;-141.90;29.23
5298;BME280;14738;42.668;23.250;2023-04-15T08:12:38;48430.00;;;-141.90;28.93
5298;BME280;14738;42.668;23.250;2023-04-15T08:15:04;48406.19;;;-141.90;29.28
5298;BME280;14738;42.668;23.250;2023-04-15T08:17:30;48424.06;;;-141.90;29.40
5298;BME280;14738;42.668;23.250;2023-04-15T08:19:56;48406.19;;;-141.90;28.86
5298;BME280;14738;42.668;23.250;2023-04-15T08:22:21;48390.31;;;-141.90;31.16
5298;BME280;14738;42.668;23.250;2023-04-15T08:24:47;48392.28;;;-141.90;31.10
5298;BME280;14738;42.668;23.250;2023-04-15T08:27:12;48398.25;;;-141.90;30.95
5298;BME280;14738;42.668;23.250;2023-04-15T08:29:38;48408.16;;;-141.90;30.39
5298;BME280;14738;42.668;23.250;2023-04-15T08:32:05;48392.28;;;-141.90;31.37
5298;BME280;14738;42.668;23.250;2023-04-15T08:34:30;48388.31;;;-141.90;31.08
5298;BME280;14738;42.668;23.250;2023-04-15T08:36:56;48410.16;;;-141.90;30.34
5298;BME280;14738;42.668;23.250;2023-04-15T08:39:21;48416.09;;;-141.90;29.98
5298;BME280;14738;42.668;23.250;2023-04-15T08:41:52;48449.84;;;-141.90;29.98
5298;BME280;14738;42.668;23.250;2023-04-15T08:44:22;48414.13;;;-141.90;27.11
5298;BME280;14738;42.668;23.250;2023-04-15T08:46:49;48433.97;;;-141.90;27.07
5298;BME280;14738;42.668;23.250;2023-04-15T08:49:16;48414.13;;;-141.90;27.67
5298;BME280;14738;42.668;23.250;2023-04-15T08:51:43;48422.06;;;-141.90;27.30
5298;BME280;14738;42.668;23.250;2023-04-15T08:54:09;48435.97;;;-141.90;27.80
5298;BME280;14738;42.668;23.250;2023-04-15T08:56:35;48430.00;;;-141.90;27.58
5298;BME280;14738;42.668;23.250;2023-04-15T08:59:01;48457.81;;;-141.90;26.41
5298;BME280;14738;42.668;23.250;2023-04-15T09:01:26;48408.16;;;-141.90;27.43
5298;BME280;14738;42.668;23.250;2023-04-15T09:03:52;48398.25;;;-141.90;27.40
5298;BME280;14738;42.668;23.250;2023-04-15T09:06:21;48439.94;;;-141.90;25.86
5298;BME280;14738;42.668;23.250;2023-04-15T09:08:48;48433.97;;;-141.90;26.54
5298;BME280;14738;42.668;23.250;2023-04-15T09:11:13;48402.22;;;-141.90;26.87
5298;BME280;14738;42.668;23.250;2023-04-15T09:13:39;48420.09;;;-141.90;24.52
5298;BME280;14738;42.668;23.250;2023-04-15T09:16:05;48437.94;;;-141.90;28.55
5298;BME280;14738;42.668;23.250;2023-04-15T09:18:35;48410.16;;;-141.90;26.58
5298;BME280;14738;42.668;23.250;2023-04-15T09:21:09;48420.09;;;-141.90;26.94
5298;BME280;14738;42.668;23.250;2023-04-15T09:23:39;48414.13;;;-141.90;27.02
5298;BME280;14738;42.668;23.250;2023-04-15T09:26:05;48420.09;;;-141.90;25.61
5298;BME280;14738;42.668;23.250;2023-04-15T09:28:31;48398.25;;;-141.90;25.85
5298;BME280;14738;42.668;23.250;2023-04-15T09:30:57;48422.06;;;-141.90;25.72
5298;BME280;14738;42.668;23.250;2023-04-15T09:33:24;48412.13;;;-141.90;26.24
5298;BME280;14738;42.668;23.250;2023-04-15T09:36:03;48422.06;;;-141.90;25.71
5298;BME280;14738;42.668;23.250;2023-04-15T09:38:29;48439.94;;;-141.90;26.59
5298;BME280;14738;42.668;23.250;2023-04-15T09:40:55;48433.97;;;-141.90;24.69
5298;BME280;14738;42.668;23.250;2023-04-15T09:43:21;48433.97;;;-141.90;24.10
5298;BME280;14738;42.668;23.250;2023-04-15T09:45:55;48441.91;;;-141.90;23.54
5298;BME280;14738;42.668;23.250;2023-04-15T09:48:23;48447.88;;;-141.90;23.84
5298;BME280;14738;42.668;23.250;2023-04-15T09:50:51;48457.81;;;-141.90;24.11
5298;BME280;14738;42.668;23.250;2023-04-15T09:53:22;48449.84;;;-141.90;23.92
5298;BME280;14738;42.668;23.250;2023-04-15T09:55:52;48445.88;;;-141.90;23.29
5298;BME280;14738;42.668;23.250;2023-04-15T09:58:22;48443.91;;;-141.90;22.57
5298;BME280;14738;42.668;23.250;2023-04-15T10:00:50;48437.94;;;-141.90;22.98
5298;BME280;14738;42.668;23.250;2023-04-15T10:03:24;48469.72;;;-141.90;22.22
5298;BME280;14738;42.668;23.250;2023-04-15T10:05:51;48443.91;;;-141.90;22.21
5298;BME280;14738;42.668;23.250;2023-04-15T10:08:19;48443.91;;;-141.90;21.53
5298;BME280;14738;42.668;23.250;2023-04-15T10:10:46;48439.94;;;-141.90;22.67
5298;BME280;14738;42.668;23.250;2023-04-15T10:13:18;48441.91;;;-141.90;21.94
5298;BME280;14738;42.668;23.250;2023-04-15T10:15:59;48463.75;;;-141.90;22.34
5298;BME280;14738;42.668;23.250;2023-04-15T10:18:27;48489.56;;;-141.90;22.77
5298;BME280;14738;42.668;23.250;2023-04-15T10:20:53;48461.78;;;-141.90;23.50
5298;BME280;14738;42.668;23.250;2023-04-15T10:23:19;48469.72;;;-141.90;22.45
5298;BME280;14738;42.668;23.250;2023-04-15T10:25:48;48459.78;;;-141.90;22.06
5298;BME280;14738;42.668;23.250;2023-04-15T10:28:15;48443.91;;;-141.90;23.23
5298;BME280;14738;42.668;23.250;2023-04-15T10:30:41;48461.78;;;-141.90;22.75
5298;BME280;14738;42.668;23.250;2023-04-15T10:33:08;48467.72;;;-141.90;22.77
5298;BME280;14738;42.668;23.250;2023-04-15T10:35:34;48465.75;;;-141.90;23.10
5298;BME280;14738;42.668;23.250;2023-04-15T10:38:00;48449.84;;;-141.90;23.40
5298;BME280;14738;42.668;23.250;2023-04-15T10:40:27;48437.94;;;-141.90;24.52
5298;BME280;14738;42.668;23.250;2023-04-15T10:42:54;48443.91;;;-141.90;23.33
5298;BME280;14738;42.668;23.250;2023-04-15T10:45:19;48463.75;;;-141.90;23.86
5298;BME280;14738;42.668;23.250;2023-04-15T10:47:45;48461.78;;;-141.90;23.69
5298;BME280;14738;42.668;23.250;2023-04-15T10:50:10;48469.72;;;-141.90;22.89
5298;BME280;14738;42.668;23.250;2023-04-15T10:52:39;48469.72;;;-141.90;23.02
5298;BME280;14738;42.668;23.250;2023-04-15T10:55:13;48457.81;;;-141.90;24.26
5298;BME280;14738;42.668;23.250;2023-04-15T10:57:41;48441.91;;;-141.90;24.20
5298;BME280;14738;42.668;23.250;2023-04-15T11:00:11;48453.81;;;-141.90;24.39
5298;BME280;14738;42.668;23.250;2023-04-15T11:05:12;48473.69;;;-141.90;24.89
5298;BME280;14738;42.668;23.250;2023-04-15T11:07:49;48437.94;;;-141.90;24.10
5298;BME280;14738;42.668;23.250;2023-04-15T11:13:02;48449.84;;;-141.90;23.72
5298;BME280;14738;42.668;23.250;2023-04-15T11:15:32;48449.84;;;-141.90;24.91
5298;BME280;14738;42.668;23.250;2023-04-15T11:20:32;48459.78;;;-141.90;24.80
5298;BME280;14738;42.668;23.250;2023-04-15T11:22:58;48467.72;;;-141.90;23.37
5298;BME280;14738;42.668;23.250;2023-04-15T11:25:28;48457.81;;;-141.90;23.00
5298;BME280;14738;42.668;23.250;2023-04-15T11:27:54;48465.75;;;-141.90;23.26
5298;BME280;14738;42.668;23.250;2023-04-15T11:30:24;48461.78;;;-141.90;23.24
5298;BME280;14738;42.668;23.250;2023-04-15T11:32:50;48445.88;;;-141.90;23.12
5298;BME280;14738;42.668;23.250;2023-04-15T11:35:17;48457.81;;;-141.90;24.33
5298;BME280;14738;42.668;23.250;2023-04-15T11:37:43;48445.88;;;-141.90;23.05
5298;BME280;14738;42.668;23.250;2023-04-15T11:40:09;48447.88;;;-141.90;22.10
5298;BME280;14738;42.668;23.250;2023-04-15T11:42:35;48457.81;;;-141.90;22.76
5298;BME280;14738;42.668;23.250;2023-04-15T11:47:34;48469.72;;;-141.90;22.39
5298;BME280;14738;42.668;23.250;2023-04-15T11:50:20;48459.78;;;-141.90;24.21
5298;BME280;14738;42.668;23.250;2023-04-15T11:52:53;48457.81;;;-141.90;21.73
5298;BME280;14738;42.668;23.250;2023-04-15T11:55:18;48473.69;;;-141.90;22.04
5298;BME280;14738;42.668;23.250;2023-04-15T11:57:44;48453.81;;;-141.90;21.33
5298;BME280;14738;42.668;23.250;2023-04-15T12:00:10;48430.00;;;-141.90;21.69
5298;BME280;14738;42.668;23.250;2023-04-15T12:02:36;48445.88;;;-141.90;20.78
5298;BME280;14738;42.668;23.250;2023-04-15T12:05:03;48449.84;;;-141.90;20.69
5298;BME280;14738;42.668;23.250;2023-04-15T12:07:29;48435.97;;;-141.90;21.55
5298;BME280;14738;42.668;23.250;2023-04-15T12:09:55;48465.75;;;-141.90;22.26
5298;BME280;14738;42.668;23.250;2023-04-15T12:12:21;48469.72;;;-141.90;21.02
5298;BME280;14738;42.668;23.250;2023-04-15T12:14:51;48426.03;;;-141.90;20.62
5298;BME280;14738;42.668;23.250;2023-04-15T12:17:17;48416.09;;;-141.90;19.89
5298;BME280;14738;42.668;23.250;2023-04-15T12:19:42;48481.63;;;-141.90;20.61
5298;BME280;14738;42.668;23.250;2023-04-15T12:22:14;48457.81;;;-141.90;20.51
5298;BME280;14738;42.668;23.250;2023-04-15T12:24:41;48455.81;;;-141.90;21.15
5298;BME280;14738;42.668;23.250;2023-04-15T12:27:14;48439.94;;;-141.90;21.43
5298;BME280;14738;42.668;23.250;2023-04-15T12:29:40;48430.00;;;-141.90;22.03
5298;BME280;14738;42.668;23.250;2023-04-15T12:32:08;48394.28;;;-141.90;21.33
5298;BME280;14738;42.668;23.250;2023-04-15T12:34:37;48473.69;;;-141.90;21.63
5298;BME280;14738;42.668;23.250;2023-04-15T12:37:04;48457.81;;;-141.90;21.28
5298;BME280;14738;42.668;23.250;2023-04-15T12:39:34;48459.78;;;-141.90;20.97
5298;BME280;14738;42.668;23.250;2023-04-15T12:41:59;48445.88;;;-141.90;21.60